Time;durP1;ratioP1;P1;durP2;ratioP2;P2;SDS_P1;SDS_P2;PMS_P1;PMS_P2;Temp;Humidity;BMP_temperature;BMP_pressure;BME280_temperature;BME280_humidity;BME280_pressure;Samples;Min_cycle;Max_cycle;Signal;HPM_P1;HPM_P2
2023/12/13 00:00:15;;;;;;;14.68;10.02;;;;;;;;;;5091551;28;20132;-53
2023/12/13 00:02:42;;;;;;;18.67;10.80;;;;;;;;;;5085904;28;20257;-42
2023/12/13 00:05:09;;;;;;;18.20;12.00;;;;;;;;;;5085661;28;20047;-45
2023/12/13 00:07:35;;;;;;;21.65;13.40;;;;;;;;;;5085623;28;20394;-43
2023/12/13 00:10:04;;;;;;;20.33;12.30;;;;;;;;;;5102169;28;20016;-49
2023/12/13 00:12:30;;;;;;;16.92;12.10;;;;;;;;;;5105795;28;20024;-42
2023/12/13 00:14:57;;;;;;;16.73;12.23;;;;;;;;;;5106068;28;20024;-48
2023/12/13 00:17:24;;;;;;;17.45;12.18;;;;;;;;;;5104742;28;20261;-49
2023/12/13 00:19:51;;;;;;;15.98;11.63;;;;;;;;;;5104579;28;20366;-42
2023/12/13 00:22:17;;;;;;;15.45;11.43;;;;;;;;;;5105641;28;20039;-52
2023/12/13 00:24:44;;;;;;;14.00;10.88;;;;;;;;;;5106283;28;20050;-50
2023/12/13 00:27:11;;;;;;;16.85;10.00;;;;;;;;;;5104361;28;20333;-45
2023/12/13 00:29:38;;;;;;;15.77;10.13;;;;;;;;;;5106192;28;20027;-47
2023/12/13 00:32:04;;;;;;;14.80;8.95;;;;;;;;;;5104978;28;20016;-47
2023/12/13 00:34:31;;;;;;;10.70;8.73;;;;;;;;;;5105752;28;20034;-43
2023/12/13 00:36:58;;;;;;;14.10;8.73;;;;;;;;;;5106081;28;20039;-55
2023/12/13 00:39:25;;;;;;;10.45;7.55;;;;;;;;;;5105550;28;20212;-42
2023/12/13 00:41:55;;;;;;;10.18;8.18;;;;;;;;;;5105917;28;20066;-42
2023/12/13 00:44:22;;;;;;;11.05;8.07;;;;;;;;;;5105642;28;20078;-46
2023/12/13 00:46:49;;;;;;;17.00;8.70;;;;;;;;;;5105903;28;20020;-47
2023/12/13 00:49:16;;;;;;;13.45;8.95;;;;;;;;;;5105410;28;20107;-48
2023/12/13 00:51:43;;;;;;;12.75;9.32;;;;;;;;;;5105714;28;20087;-52
2023/12/13 00:54:10;;;;;;;16.63;8.80;;;;;;;;;;5104738;28;20385;-52
2023/12/13 00:56:36;;;;;;;15.48;9.35;;;;;;;;;;5105823;28;20032;-45
2023/12/13 00:59:03;;;;;;;15.68;8.95;;;;;;;;;;5105278;28;20044;-48
2023/12/13 01:01:30;;;;;;;12.68;9.40;;;;;;;;;;5105750;28;20027;-45
2023/12/13 01:03:57;;;;;;;11.93;9.10;;;;;;;;;;5105204;28;20317;-45
2023/12/13 01:06:23;;;;;;;13.82;8.60;;;;;;;;;;5105422;28;20066;-49
2023/12/13 01:08:50;;;;;;;13.38;7.90;;;;;;;;;;5105084;28;20336;-52
2023/12/13 01:11:17;;;;;;;12.40;8.30;;;;;;;;;;5105158;28;20039;-48
2023/12/13 01:13:45;;;;;;;10.55;7.50;;;;;;;;;;5104604;28;20095;-41
2023/12/13 01:16:12;;;;;;;13.32;7.45;;;;;;;;;;5104638;28;20020;-55
2023/12/13 01:18:40;;;;;;;12.77;7.65;;;;;;;;;;5104680;28;20066;-43
2023/12/13 01:21:06;;;;;;;11.13;7.40;;;;;;;;;;5104691;28;20028;-48
2023/12/13 01:23:34;;;;;;;13.48;8.15;;;;;;;;;;5104429;28;20023;-48
2023/12/13 01:26:02;;;;;;;10.18;6.80;;;;;;;;;;5104674;28;20212;-49
2023/12/13 01:28:31;;;;;;;12.68;7.75;;;;;;;;;;5104178;28;20393;-48
2023/12/13 01:30:59;;;;;;;13.32;7.63;;;;;;;;;;5098126;28;20091;-48
2023/12/13 01:33:25;;;;;;;15.57;7.97;;;;;;;;;;5095903;28;20070;-42
2023/12/13 01:35:52;;;;;;;13.07;7.88;;;;;;;;;;5088307;28;20025;-44
2023/12/13 01:38:19;;;;;;;14.38;7.47;;;;;;;;;;5101914;28;20051;-42
2023/12/13 01:40:53;;;;;;;10.82;7.97;;;;;;;;;;5104432;28;20035;-41
2023/12/13 01:43:26;;;;;;;13.18;7.15;;;;;;;;;;5104141;28;20043;-47
2023/12/13 01:45:54;;;;;;;14.25;7.78;;;;;;;;;;5104428;28;20038;-42
2023/12/13 01:48:22;;;;;;;14.40;8.48;;;;;;;;;;5095552;28;20240;-51
2023/12/13 01:50:50;;;;;;;13.80;7.80;;;;;;;;;;5101504;28;20028;-49
2023/12/13 01:53:18;;;;;;;10.82;8.07;;;;;;;;;;5104294;28;20016;-49
2023/12/13 01:55:45;;;;;;;14.38;7.43;;;;;;;;;;5104260;28;20038;-51
2023/12/13 01:58:12;;;;;;;11.55;7.63;;;;;;;;;;5104240;28;20024;-51
2023/12/13 02:00:39;;;;;;;12.77;6.50;;;;;;;;;;5103401;28;20020;-47
2023/12/13 02:03:07;;;;;;;9.68;6.68;;;;;;;;;;5103943;28;20040;-53
2023/12/13 02:05:34;;;;;;;13.00;6.75;;;;;;;;;;5104234;28;20032;-54
2023/12/13 02:08:02;;;;;;;17.58;7.10;;;;;;;;;;5104262;28;20024;-45
2023/12/13 02:10:29;;;;;;;12.88;6.97;;;;;;;;;;5104156;28;20024;-46
2023/12/13 02:12:55;;;;;;;10.63;7.38;;;;;;;;;;5102804;28;20028;-54
2023/12/13 02:15:23;;;;;;;12.38;6.13;;;;;;;;;;5104027;28;20020;-47
2023/12/13 02:17:53;;;;;;;10.80;6.43;;;;;;;;;;5103896;28;20036;-50
2023/12/13 02:20:20;;;;;;;11.77;6.25;;;;;;;;;;5104224;28;20070;-49
2023/12/13 02:22:46;;;;;;;9.60;6.55;;;;;;;;;;5104344;28;20012;-47
2023/12/13 02:25:17;;;;;;;8.43;6.28;;;;;;;;;;5103996;28;20215;-47
2023/12/13 02:27:44;;;;;;;8.63;6.20;;;;;;;;;;5103909;28;20128;-49
2023/12/13 02:30:11;;;;;;;11.43;6.25;;;;;;;;;;5104139;28;20304;-51
2023/12/13 02:32:39;;;;;;;12.52;7.28;;;;;;;;;;5102908;28;20312;-53
2023/12/13 02:35:06;;;;;;;12.85;6.75;;;;;;;;;;5102003;28;20044;-54
2023/12/13 02:37:33;;;;;;;11.65;6.90;;;;;;;;;;5103058;28;20039;-55
2023/12/13 02:40:03;;;;;;;9.02;6.82;;;;;;;;;;5103565;28;20098;-56
2023/12/13 02:42:29;;;;;;;12.00;6.50;;;;;;;;;;5103682;28;20044;-55
2023/12/13 02:44:57;;;;;;;12.73;7.43;;;;;;;;;;5103576;28;20044;-51
2023/12/13 02:47:25;;;;;;;12.35;7.05;;;;;;;;;;5103120;28;20047;-52
2023/12/13 02:49:52;;;;;;;11.63;6.68;;;;;;;;;;5103721;28;20039;-52
2023/12/13 02:52:19;;;;;;;8.27;5.97;;;;;;;;;;5103586;28;20027;-54
2023/12/13 02:54:45;;;;;;;9.32;5.75;;;;;;;;;;5104998;28;20047;-54
2023/12/13 02:57:12;;;;;;;7.38;5.25;;;;;;;;;;5107436;28;20054;-53
2023/12/13 02:59:39;;;;;;;9.85;5.75;;;;;;;;;;5107310;28;20020;-53
2023/12/13 03:02:05;;;;;;;7.60;5.13;;;;;;;;;;5107632;28;20036;-57
2023/12/13 03:04:32;;;;;;;10.45;5.45;;;;;;;;;;5107046;28;20091;-51
2023/12/13 03:06:59;;;;;;;7.60;5.35;;;;;;;;;;5107623;28;20342;-61
2023/12/13 03:09:26;;;;;;;9.32;5.13;;;;;;;;;;5107037;28;20028;-59
2023/12/13 03:11:52;;;;;;;8.13;4.80;;;;;;;;;;5107634;28;20024;-56
2023/12/13 03:14:19;;;;;;;8.05;4.75;;;;;;;;;;5107016;28;20031;-51
2023/12/13 03:16:46;;;;;;;7.97;5.00;;;;;;;;;;5107384;28;20259;-53
2023/12/13 03:19:12;;;;;;;7.75;4.60;;;;;;;;;;5106612;28;20191;-54
2023/12/13 03:21:39;;;;;;;7.95;4.60;;;;;;;;;;5107477;28;20024;-52
2023/12/13 03:24:06;;;;;;;6.90;4.18;;;;;;;;;;5106760;28;20036;-56
2023/12/13 03:26:33;;;;;;;6.70;4.18;;;;;;;;;;5106900;28;20024;-53
2023/12/13 03:28:59;;;;;;;5.55;3.97;;;;;;;;;;5106650;28;20142;-51
2023/12/13 03:31:28;;;;;;;5.20;3.90;;;;;;;;;;5106994;28;20065;-54
2023/12/13 03:33:55;;;;;;;6.05;4.10;;;;;;;;;;5106495;28;20371;-52
2023/12/13 03:36:21;;;;;;;8.18;4.47;;;;;;;;;;5107063;28;20257;-52
2023/12/13 03:38:48;;;;;;;10.52;4.45;;;;;;;;;;5106621;28;20039;-56
2023/12/13 03:41:15;;;;;;;8.10;4.10;;;;;;;;;;5095843;28;20028;-53
2023/12/13 03:43:42;;;;;;;6.80;4.25;;;;;;;;;;5100866;28;20035;-53
2023/12/13 03:46:08;;;;;;;7.97;4.20;;;;;;;;;;5086400;28;20039;-55
2023/12/13 03:48:35;;;;;;;7.10;4.40;;;;;;;;;;5086009;28;20033;-54
2023/12/13 03:51:02;;;;;;;6.55;4.53;;;;;;;;;;5086339;28;20039;-59
2023/12/13 03:53:29;;;;;;;5.38;4.25;;;;;;;;;;5086124;28;20029;-59
2023/12/13 03:55:56;;;;;;;7.32;3.97;;;;;;;;;;5097066;28;20020;-53
2023/12/13 03:58:22;;;;;;;5.30;4.15;;;;;;;;;;5105546;28;20031;-61
2023/12/13 04:00:49;;;;;;;6.03;4.15;;;;;;;;;;5105733;28;20095;-53
2023/12/13 04:03:16;;;;;;;7.65;4.20;;;;;;;;;;5090943;28;20081;-56
2023/12/13 04:05:43;;;;;;;4.47;3.75;;;;;;;;;;5099774;28;20024;-54
2023/12/13 04:08:09;;;;;;;5.82;3.80;;;;;;;;;;5095159;28;20024;-54
2023/12/13 04:10:36;;;;;;;5.32;3.85;;;;;;;;;;5105401;28;20335;-55
2023/12/13 04:13:03;;;;;;;6.50;3.88;;;;;;;;;;5093830;28;20028;-49
2023/12/13 04:15:29;;;;;;;5.90;4.10;;;;;;;;;;5103296;28;20312;-56
2023/12/13 04:17:56;;;;;;;5.28;3.80;;;;;;;;;;5086199;28;20032;-47
2023/12/13 04:20:23;;;;;;;4.93;3.58;;;;;;;;;;5085725;28;20017;-47
2023/12/13 04:22:50;;;;;;;3.22;2.90;;;;;;;;;;5085564;28;20033;-51
2023/12/13 04:25:17;;;;;;;5.65;3.55;;;;;;;;;;5085422;28;20367;-52
2023/12/13 04:27:45;;;;;;;6.35;3.58;;;;;;;;;;5085053;28;20053;-56
2023/12/13 04:30:12;;;;;;;6.43;3.60;;;;;;;;;;5085234;28;20313;-54
2023/12/13 04:32:39;;;;;;;7.63;3.95;;;;;;;;;;5100443;28;20032;-53
2023/12/13 04:35:06;;;;;;;5.53;3.47;;;;;;;;;;5089795;28;20288;-51
2023/12/13 04:37:32;;;;;;;5.63;3.88;;;;;;;;;;5084051;28;20044;-53
2023/12/13 04:39:59;;;;;;;4.85;3.50;;;;;;;;;;5083709;28;20039;-54
2023/12/13 04:42:28;;;;;;;5.32;3.25;;;;;;;;;;5084723;28;20028;-54
2023/12/13 04:44:55;;;;;;;5.07;3.67;;;;;;;;;;5083681;28;20035;-52
2023/12/13 04:47:21;;;;;;;5.30;3.50;;;;;;;;;;5087499;28;20043;-57
2023/12/13 04:49:48;;;;;;;4.03;3.30;;;;;;;;;;5083934;28;20020;-57
2023/12/13 04:52:15;;;;;;;5.65;4.05;;;;;;;;;;5084107;28;20040;-56
2023/12/13 04:54:42;;;;;;;6.82;3.90;;;;;;;;;;5084778;28;20321;-48
2023/12/13 04:57:08;;;;;;;5.82;4.13;;;;;;;;;;5085233;28;20029;-48
2023/12/13 04:59:35;;;;;;;5.50;3.60;;;;;;;;;;5084724;28;20103;-52
2023/12/13 05:02:02;;;;;;;4.63;3.95;;;;;;;;;;5090386;28;20095;-54
2023/12/13 05:04:29;;;;;;;5.60;3.53;;;;;;;;;;5089017;28;20083;-48
2023/12/13 05:06:55;;;;;;;6.22;3.80;;;;;;;;;;5084985;28;20052;-60
2023/12/13 05:09:22;;;;;;;7.47;3.67;;;;;;;;;;5083707;28;20033;-59
2023/12/13 05:11:49;;;;;;;5.10;3.65;;;;;;;;;;5090702;28;20027;-57
2023/12/13 05:14:15;;;;;;;8.68;3.28;;;;;;;;;;5125521;28;20081;-58
2023/12/13 05:16:42;;;;;;;6.20;3.40;;;;;;;;;;5124622;28;20080;-57
2023/12/13 05:19:09;;;;;;;5.88;3.42;;;;;;;;;;5125089;28;20023;-51
2023/12/13 05:21:36;;;;;;;4.38;3.45;;;;;;;;;;5124223;28;20023;-49
2023/12/13 05:24:02;;;;;;;6.10;3.80;;;;;;;;;;5124925;28;20192;-48
2023/12/13 05:26:29;;;;;;;4.80;3.60;;;;;;;;;;5125426;28;20015;-52
2023/12/13 05:28:56;;;;;;;4.72;3.30;;;;;;;;;;5124814;28;20047;-50
2023/12/13 05:31:23;;;;;;;5.05;3.42;;;;;;;;;;5125414;28;20342;-54
2023/12/13 05:33:50;;;;;;;4.65;3.25;;;;;;;;;;5124858;28;20024;-51
2023/12/13 05:36:18;;;;;;;4.22;3.20;;;;;;;;;;5125026;28;20024;-55
2023/12/13 05:38:45;;;;;;;4.00;3.60;;;;;;;;;;5124615;28;20028;-50
2023/12/13 05:41:11;;;;;;;6.53;3.72;;;;;;;;;;5125140;28;20020;-53
2023/12/13 05:43:38;;;;;;;6.45;3.58;;;;;;;;;;5124755;28;20339;-52
2023/12/13 05:46:05;;;;;;;5.50;3.70;;;;;;;;;;5124804;28;20144;-51
2023/12/13 05:48:32;;;;;;;5.93;3.30;;;;;;;;;;5124818;28;20086;-49
2023/12/13 05:50:59;;;;;;;5.03;3.47;;;;;;;;;;5124994;28;20316;-49
2023/12/13 05:53:26;;;;;;;5.75;3.40;;;;;;;;;;5124785;28;20094;-52
2023/12/13 05:55:54;;;;;;;5.88;3.28;;;;;;;;;;5124884;28;20091;-52
2023/12/13 05:58:21;;;;;;;4.22;2.92;;;;;;;;;;5124587;28;20032;-53
2023/12/13 06:00:47;;;;;;;5.95;3.50;;;;;;;;;;5124678;28;20028;-53
2023/12/13 06:03:14;;;;;;;6.80;2.90;;;;;;;;;;5124445;28;20047;-56
2023/12/13 06:05:41;;;;;;;4.30;3.05;;;;;;;;;;5124493;28;20024;-52
2023/12/13 06:08:08;;;;;;;4.18;3.40;;;;;;;;;;5124536;28;20031;-49
2023/12/13 06:10:35;;;;;;;6.65;3.58;;;;;;;;;;5124391;28;20012;-50
2023/12/13 06:13:02;;;;;;;5.65;3.55;;;;;;;;;;5124659;28;20149;-55
2023/12/13 06:15:29;;;;;;;4.68;3.60;;;;;;;;;;5124514;28;20038;-50
2023/12/13 06:17:56;;;;;;;5.78;3.10;;;;;;;;;;5124127;28;20047;-46
2023/12/13 06:20:22;;;;;;;6.05;3.20;;;;;;;;;;5124491;28;20030;-47
2023/12/13 06:22:49;;;;;;;6.05;3.25;;;;;;;;;;5124453;28;20047;-48
2023/12/13 06:25:16;;;;;;;4.95;3.03;;;;;;;;;;5124196;28;20016;-56
2023/12/13 06:27:42;;;;;;;7.55;3.58;;;;;;;;;;5124139;28;20272;-52
2023/12/13 06:30:10;;;;;;;5.78;3.42;;;;;;;;;;5126995;28;20022;-53
2023/12/13 06:32:37;;;;;;;3.88;3.25;;;;;;;;;;5128190;28;20212;-52
2023/12/13 06:35:03;;;;;;;6.65;3.63;;;;;;;;;;5128243;28;20068;-46
2023/12/13 06:37:30;;;;;;;6.55;3.13;;;;;;;;;;5128255;28;20028;-55
2023/12/13 06:39:57;;;;;;;8.80;3.42;;;;;;;;;;5128111;28;20061;-54
2023/12/13 06:42:25;;;;;;;6.10;3.17;;;;;;;;;;5128258;28;20090;-51
2023/12/13 06:44:51;;;;;;;3.97;3.30;;;;;;;;;;5128009;28;20055;-50
2023/12/13 06:47:18;;;;;;;5.30;3.17;;;;;;;;;;5127839;28;20261;-56
2023/12/13 06:49:45;;;;;;;7.40;3.30;;;;;;;;;;5128046;28;20027;-47
2023/12/13 06:52:12;;;;;;;4.72;2.88;;;;;;;;;;5127959;28;20027;-55
2023/12/13 06:54:39;;;;;;;5.07;2.70;;;;;;;;;;5127937;28;20020;-53
2023/12/13 06:57:06;;;;;;;4.60;3.15;;;;;;;;;;5128535;28;20090;-52
2023/12/13 06:59:32;;;;;;;5.97;2.78;;;;;;;;;;5128071;28;20197;-49
2023/12/13 07:02:00;;;;;;;4.40;3.00;;;;;;;;;;5127529;28;20019;-45
2023/12/13 07:04:26;;;;;;;3.03;2.63;;;;;;;;;;5127832;28;20032;-48
2023/12/13 07:06:54;;;;;;;4.68;2.83;;;;;;;;;;5128124;28;20027;-47
2023/12/13 07:09:22;;;;;;;4.78;3.05;;;;;;;;;;5128073;28;20027;-50
2023/12/13 07:11:49;;;;;;;4.32;2.70;;;;;;;;;;5128134;28;20137;-52
2023/12/13 07:14:15;;;;;;;4.95;3.30;;;;;;;;;;5128040;28;20241;-52
2023/12/13 07:16:46;;;;;;;5.22;2.85;;;;;;;;;;5127902;28;20015;-52
2023/12/13 07:19:12;;;;;;;6.20;2.47;;;;;;;;;;5127748;28;20042;-50
2023/12/13 07:21:39;;;;;;;5.22;2.65;;;;;;;;;;5127812;28;20030;-51
2023/12/13 07:24:06;;;;;;;4.43;2.80;;;;;;;;;;5127365;28;20068;-50
2023/12/13 07:26:32;;;;;;;4.80;2.75;;;;;;;;;;5127700;28;20027;-54
2023/12/13 07:28:59;;;;;;;4.60;2.80;;;;;;;;;;5127205;28;20060;-52
2023/12/13 07:31:26;;;;;;;4.75;2.95;;;;;;;;;;5127501;28;20016;-48
2023/12/13 07:33:53;;;;;;;4.45;2.90;;;;;;;;;;5127139;28;20024;-51
2023/12/13 07:36:20;;;;;;;4.18;3.13;;;;;;;;;;5127560;28;20031;-48
2023/12/13 07:38:46;;;;;;;4.68;2.60;;;;;;;;;;5127050;28;20023;-50
2023/12/13 07:41:13;;;;;;;5.45;2.80;;;;;;;;;;5127341;28;20275;-54
2023/12/13 07:43:40;;;;;;;4.15;2.45;;;;;;;;;;5126981;28;20035;-57
2023/12/13 07:46:07;;;;;;;3.85;2.63;;;;;;;;;;5127146;28;20023;-52
2023/12/13 07:48:34;;;;;;;3.85;2.60;;;;;;;;;;5127192;28;20345;-53
2023/12/13 07:51:00;;;;;;;5.38;2.58;;;;;;;;;;5127276;28;20027;-58
2023/12/13 07:53:27;;;;;;;5.18;2.78;;;;;;;;;;5126649;28;20015;-50
2023/12/13 07:55:54;;;;;;;5.60;3.00;;;;;;;;;;5127344;28;20035;-54
2023/12/13 07:58:20;;;;;;;5.50;2.63;;;;;;;;;;5126687;28;20040;-56
2023/12/13 08:00:47;;;;;;;3.88;2.50;;;;;;;;;;5126988;28;20024;-57
2023/12/13 08:03:14;;;;;;;5.40;2.85;;;;;;;;;;5126588;28;20395;-51
2023/12/13 08:05:40;;;;;;;5.22;2.45;;;;;;;;;;5126737;28;20051;-48
2023/12/13 08:08:07;;;;;;;3.83;2.50;;;;;;;;;;5126764;28;20043;-50
2023/12/13 08:10:34;;;;;;;4.32;2.70;;;;;;;;;;5126894;28;20024;-51
2023/12/13 08:13:00;;;;;;;4.82;2.67;;;;;;;;;;5126742;28;20068;-51
2023/12/13 08:15:27;;;;;;;5.20;2.50;;;;;;;;;;5126694;28;20016;-48
2023/12/13 08:17:54;;;;;;;7.35;2.63;;;;;;;;;;5126354;28;20036;-52
2023/12/13 08:20:21;;;;;;;3.70;2.30;;;;;;;;;;5126634;28;20082;-57
2023/12/13 08:22:48;;;;;;;3.80;2.70;;;;;;;;;;5126373;28;20023;-53
2023/12/13 08:25:15;;;;;;;4.38;2.20;;;;;;;;;;5126266;28;20046;-48
2023/12/13 08:27:42;;;;;;;4.20;2.40;;;;;;;;;;5125858;28;20062;-52
2023/12/13 08:30:09;;;;;;;6.25;2.50;;;;;;;;;;5126357;28;20311;-46
2023/12/13 08:32:35;;;;;;;2.38;1.92;;;;;;;;;;5125909;28;20039;-53
2023/12/13 08:35:03;;;;;;;4.88;2.70;;;;;;;;;;5106546;28;20031;-53
2023/12/13 08:37:29;;;;;;;3.65;2.30;;;;;;;;;;5089221;28;20039;-52
2023/12/13 08:39:56;;;;;;;3.90;2.25;;;;;;;;;;5085158;28;20028;-54
2023/12/13 08:42:23;;;;;;;4.22;2.50;;;;;;;;;;5085662;28;20312;-47
2023/12/13 08:44:50;;;;;;;4.85;2.45;;;;;;;;;;5085012;28;20048;-48
2023/12/13 08:47:16;;;;;;;4.28;2.80;;;;;;;;;;5085166;28;20060;-50
2023/12/13 08:49:45;;;;;;;5.85;2.42;;;;;;;;;;5085234;28;20257;-48
2023/12/13 08:52:15;;;;;;;4.30;2.63;;;;;;;;;;5084207;28;20071;-46
2023/12/13 08:54:42;;;;;;;3.50;2.08;;;;;;;;;;5084759;28;20024;-46
2023/12/13 08:57:08;;;;;;;4.25;2.50;;;;;;;;;;5085355;28;20054;-49
2023/12/13 08:59:35;;;;;;;3.90;2.10;;;;;;;;;;5085116;28;20217;-52
2023/12/13 09:02:02;;;;;;;5.55;2.70;;;;;;;;;;5085208;28;20052;-47
2023/12/13 09:04:28;;;;;;;4.85;2.30;;;;;;;;;;5084781;28;20033;-49
2023/12/13 09:06:55;;;;;;;6.18;2.50;;;;;;;;;;5085181;28;20024;-49
2023/12/13 09:09:22;;;;;;;5.38;2.45;;;;;;;;;;5084721;28;20088;-50
2023/12/13 09:11:49;;;;;;;3.90;2.50;;;;;;;;;;5085389;28;20024;-49
2023/12/13 09:14:15;;;;;;;4.78;2.30;;;;;;;;;;5084872;28;20239;-47
2023/12/13 09:16:42;;;;;;;2.85;2.35;;;;;;;;;;5084714;28;20066;-49
2023/12/13 09:19:09;;;;;;;4.10;2.30;;;;;;;;;;5084786;28;20037;-46
2023/12/13 09:21:35;;;;;;;4.05;2.40;;;;;;;;;;5084922;28;20032;-47
2023/12/13 09:24:02;;;;;;;4.15;2.20;;;;;;;;;;5084313;28;20032;-50
2023/12/13 09:26:29;;;;;;;4.18;2.40;;;;;;;;;;5084789;28;20088;-56
2023/12/13 09:28:56;;;;;;;4.50;2.55;;;;;;;;;;5084125;28;20056;-47
2023/12/13 09:31:24;;;;;;;5.18;2.38;;;;;;;;;;5084128;28;20024;-55
2023/12/13 09:33:52;;;;;;;4.13;2.33;;;;;;;;;;5084661;28;20024;-46
2023/12/13 09:36:19;;;;;;;5.07;2.67;;;;;;;;;;5084647;28;20024;-47
2023/12/13 09:38:46;;;;;;;3.53;2.30;;;;;;;;;;5084047;28;20033;-47
2023/12/13 09:41:21;;;;;;;5.47;2.13;;;;;;;;;;5084488;28;20296;-53
2023/12/13 09:43:49;;;;;;;5.18;2.47;;;;;;;;;;5084439;28;20237;-53
2023/12/13 09:46:17;;;;;;;4.80;2.50;;;;;;;;;;5084742;28;20260;-51
2023/12/13 09:48:45;;;;;;;5.25;2.50;;;;;;;;;;5084154;28;20139;-55
2023/12/13 09:51:12;;;;;;;5.32;2.75;;;;;;;;;;5084849;28;20031;-55
2023/12/13 09:53:40;;;;;;;4.63;2.63;;;;;;;;;;5083834;28;20055;-50
2023/12/13 09:56:10;;;;;;;6.32;2.60;;;;;;;;;;5084393;28;20069;-55
2023/12/13 09:58:36;;;;;;;5.35;2.38;;;;;;;;;;5083928;28;20341;-52
2023/12/13 10:01:10;;;;;;;4.47;2.65;;;;;;;;;;5084480;28;20036;-53
2023/12/13 10:03:41;;;;;;;4.28;2.30;;;;;;;;;;5084079;28;20032;-53
2023/12/13 10:06:08;;;;;;;4.43;2.47;;;;;;;;;;5084091;28;20065;-51
2023/12/13 10:08:35;;;;;;;6.85;2.88;;;;;;;;;;5083948;28;20087;-57
2023/12/13 10:11:07;;;;;;;3.80;2.50;;;;;;;;;;5084044;28;20055;-50
2023/12/13 10:13:34;;;;;;;3.75;2.30;;;;;;;;;;5083847;28;20074;-50
2023/12/13 10:16:10;;;;;;;3.35;2.08;;;;;;;;;;5093908;28;20137;-54
2023/12/13 10:18:40;;;;;;;6.10;2.50;;;;;;;;;;5103947;28;20082;-50
2023/12/13 10:21:10;;;;;;;4.03;2.20;;;;;;;;;;5104244;28;20079;-53
2023/12/13 10:23:37;;;;;;;6.53;3.10;;;;;;;;;;5104269;28;20084;-49
2023/12/13 10:26:05;;;;;;;5.55;2.80;;;;;;;;;;5104020;28;20032;-55
2023/12/13 10:28:37;;;;;;;4.40;2.58;;;;;;;;;;5103904;28;20052;-54
2023/12/13 10:31:04;;;;;;;5.63;3.03;;;;;;;;;;5104524;28;20027;-52
2023/12/13 10:33:31;;;;;;;5.47;3.13;;;;;;;;;;5103759;28;20028;-55
2023/12/13 10:35:59;;;;;;;7.10;3.67;;;;;;;;;;5104337;28;20039;-58
2023/12/13 10:38:27;;;;;;;5.88;3.58;;;;;;;;;;5104167;28;20024;-54
2023/12/13 10:40:54;;;;;;;9.27;4.10;;;;;;;;;;5103772;28;20040;-56
2023/12/13 10:43:21;;;;;;;8.93;3.95;;;;;;;;;;5104177;28;20024;-55
2023/12/13 10:45:56;;;;;;;8.15;3.40;;;;;;;;;;5099068;28;20113;-52
2023/12/13 10:48:24;;;;;;;4.88;3.22;;;;;;;;;;5098133;28;20054;-53
2023/12/13 10:50:51;;;;;;;5.93;3.13;;;;;;;;;;5104424;28;20031;-49
2023/12/13 10:53:19;;;;;;;4.30;2.92;;;;;;;;;;5103640;28;20016;-57
2023/12/13 10:55:46;;;;;;;8.60;3.58;;;;;;;;;;5103827;28;20260;-53
2023/12/13 10:58:13;;;;;;;8.02;2.90;;;;;;;;;;5103742;28;20032;-54
2023/12/13 11:00:41;;;;;;;5.07;2.95;;;;;;;;;;5103844;28;20016;-53
2023/12/13 11:03:32;;;;;;;5.15;3.05;;;;;;;;;;5101901;28;20024;-47
2023/12/13 11:06:03;;;;;;;9.25;3.33;;;;;;;;;;5090283;28;20066;-49
2023/12/13 11:08:37;;;;;;;7.57;3.60;;;;;;;;;;5101907;28;20040;-52
2023/12/13 11:11:07;;;;;;;11.95;3.90;;;;;;;;;;5097165;28;20048;-50
2023/12/13 11:13:47;;;;;;;6.75;3.30;;;;;;;;;;5101028;28;20107;-49
2023/12/13 11:16:14;;;;;;;9.20;4.45;;;;;;;;;;5106080;28;20303;-53
2023/12/13 11:18:41;;;;;;;8.13;4.47;;;;;;;;;;5106920;28;20036;-54
2023/12/13 11:21:08;;;;;;;10.88;5.10;;;;;;;;;;5106767;28;20036;-51
2023/12/13 11:23:39;;;;;;;10.35;5.60;;;;;;;;;;5100776;28;20039;-45
2023/12/13 11:26:14;;;;;;;10.43;5.10;;;;;;;;;;5094924;28;20024;-45
2023/12/13 11:28:41;;;;;;;9.80;4.95;;;;;;;;;;5094350;28;20107;-45
2023/12/13 11:31:13;;;;;;;11.32;4.57;;;;;;;;;;5094538;28;20024;-42
2023/12/13 11:33:43;;;;;;;11.60;4.30;;;;;;;;;;5095817;28;20332;-43
2023/12/13 11:36:11;;;;;;;8.23;4.65;;;;;;;;;;5087775;28;20090;-46
2023/12/13 11:38:38;;;;;;;9.18;4.72;;;;;;;;;;5084894;28;20032;-49
2023/12/13 11:41:05;;;;;;;10.20;5.10;;;;;;;;;;5084910;28;20039;-46
2023/12/13 11:43:31;;;;;;;8.32;4.30;;;;;;;;;;5085752;28;20333;-42
2023/12/13 11:45:58;;;;;;;10.40;4.57;;;;;;;;;;5086236;28;20091;-47
2023/12/13 11:48:26;;;;;;;10.48;4.00;;;;;;;;;;5084914;28;20020;-46
2023/12/13 11:50:53;;;;;;;10.60;4.47;;;;;;;;;;5086019;28;20024;-43
2023/12/13 11:53:20;;;;;;;8.27;3.83;;;;;;;;;;5086994;28;20028;-45
2023/12/13 11:55:46;;;;;;;12.80;3.85;;;;;;;;;;5085567;28;20073;-48
2023/12/13 11:58:15;;;;;;;10.45;4.07;;;;;;;;;;5086823;28;20052;-43
2023/12/13 12:00:45;;;;;;;8.60;3.95;;;;;;;;;;5086342;28;20024;-44
2023/12/13 12:03:13;;;;;;;7.82;4.20;;;;;;;;;;5086845;28;20035;-43
2023/12/13 12:05:43;;;;;;;10.73;3.90;;;;;;;;;;5087019;28;20036;-43
2023/12/13 12:08:11;;;;;;;15.32;3.95;;;;;;;;;;5086299;28;20227;-43
2023/12/13 12:10:38;;;;;;;10.63;3.85;;;;;;;;;;5086916;28;20016;-47
2023/12/13 12:13:06;;;;;;;7.57;3.35;;;;;;;;;;5086294;28;20048;-44
2023/12/13 12:15:33;;;;;;;10.38;3.88;;;;;;;;;;5086240;28;20205;-46
2023/12/13 12:18:02;;;;;;;11.15;3.80;;;;;;;;;;5086215;28;20269;-46
2023/12/13 12:20:29;;;;;;;6.30;3.10;;;;;;;;;;5086251;28;20051;-45
2023/12/13 12:22:59;;;;;;;9.18;3.83;;;;;;;;;;5085685;28;20037;-49
2023/12/13 12:25:28;;;;;;;7.68;3.50;;;;;;;;;;5086054;28;20078;-47
2023/12/13 12:27:56;;;;;;;8.38;3.72;;;;;;;;;;5084185;28;20056;-48
2023/12/13 12:30:23;;;;;;;7.43;3.70;;;;;;;;;;5085529;28;20313;-51
2023/12/13 12:32:49;;;;;;;6.88;3.95;;;;;;;;;;5085767;28;20324;-48
2023/12/13 12:35:17;;;;;;;9.27;4.05;;;;;;;;;;5085497;28;20028;-47
2023/12/13 12:37:44;;;;;;;9.60;4.03;;;;;;;;;;5085410;28;20032;-48
2023/12/13 12:40:11;;;;;;;5.80;3.47;;;;;;;;;;5085876;28;20079;-45
2023/12/13 12:42:38;;;;;;;7.78;3.47;;;;;;;;;;5085593;28;20036;-47
2023/12/13 12:45:05;;;;;;;6.35;3.47;;;;;;;;;;5085129;28;20040;-47
2023/12/13 12:47:32;;;;;;;6.88;3.35;;;;;;;;;;5085757;28;20020;-45
2023/12/13 12:50:02;;;;;;;7.28;3.40;;;;;;;;;;5085308;28;20289;-49
2023/12/13 12:52:29;;;;;;;4.60;2.95;;;;;;;;;;5085250;28;20343;-48
2023/12/13 12:54:55;;;;;;;6.05;3.50;;;;;;;;;;5085102;28;20072;-52
2023/12/13 12:57:23;;;;;;;5.38;2.95;;;;;;;;;;5085394;28;20036;-45
2023/12/13 12:59:50;;;;;;;6.82;3.63;;;;;;;;;;5085339;28;20064;-47
2023/12/13 13:02:17;;;;;;;6.53;3.53;;;;;;;;;;5085054;28;20193;-52
2023/12/13 13:04:43;;;;;;;9.35;3.65;;;;;;;;;;5085047;28;20030;-51
2023/12/13 13:07:10;;;;;;;6.82;3.47;;;;;;;;;;5084989;28;20028;-53
2023/12/13 13:09:37;;;;;;;6.25;3.40;;;;;;;;;;5083843;28;20208;-51
2023/12/13 13:12:04;;;;;;;23.83;5.97;;;;;;;;;;5085228;28;20024;-50
2023/12/13 13:14:31;;;;;;;28.02;5.85;;;;;;;;;;5084595;28;20031;-51
2023/12/13 13:16:57;;;;;;;21.10;5.00;;;;;;;;;;5085134;28;20020;-56
2023/12/13 13:19:25;;;;;;;11.88;4.20;;;;;;;;;;5084607;28;20063;-50
2023/12/13 13:21:51;;;;;;;8.48;4.13;;;;;;;;;;5084892;28;20024;-50
2023/12/13 13:24:18;;;;;;;9.70;3.90;;;;;;;;;;5084910;28;20020;-53
2023/12/13 13:26:45;;;;;;;7.80;4.28;;;;;;;;;;5085350;28;20073;-57
2023/12/13 13:29:11;;;;;;;13.65;5.28;;;;;;;;;;5084627;28;20048;-51
2023/12/13 13:31:39;;;;;;;14.63;8.43;;;;;;;;;;5085061;28;20083;-51
2023/12/13 13:34:06;;;;;;;16.38;8.13;;;;;;;;;;5084437;28;20304;-50
2023/12/13 13:36:32;;;;;;;17.00;8.18;;;;;;;;;;5084730;28;20024;-50
2023/12/13 13:38:59;;;;;;;17.90;11.13;;;;;;;;;;5084062;28;20098;-49
2023/12/13 13:41:28;;;;;;;23.70;15.05;;;;;;;;;;5084767;28;20032;-52
2023/12/13 13:43:55;;;;;;;26.80;18.13;;;;;;;;;;5084366;28;20029;-48
2023/12/13 13:46:22;;;;;;;26.10;17.73;;;;;;;;;;5085286;28;20096;-51
2023/12/13 13:48:49;;;;;;;27.40;18.20;;;;;;;;;;5084663;28;20219;-45
2023/12/13 13:51:15;;;;;;;24.70;17.67;;;;;;;;;;5084748;28;20085;-51
2023/12/13 13:53:42;;;;;;;27.98;17.35;;;;;;;;;;5084646;28;20035;-47
2023/12/13 13:56:10;;;;;;;27.05;17.45;;;;;;;;;;5084803;28;20032;-48
2023/12/13 13:58:37;;;;;;;21.50;14.38;;;;;;;;;;5083994;28;20039;-43
2023/12/13 14:01:04;;;;;;;21.52;13.70;;;;;;;;;;5084259;28;20020;-53
2023/12/13 14:03:31;;;;;;;21.77;13.32;;;;;;;;;;5084405;28;20092;-49
2023/12/13 14:05:59;;;;;;;16.65;11.30;;;;;;;;;;5084277;28;20035;-54
2023/12/13 14:08:26;;;;;;;17.55;9.65;;;;;;;;;;5084041;28;20036;-46
2023/12/13 14:10:53;;;;;;;14.30;8.95;;;;;;;;;;5084289;28;20016;-49
2023/12/13 14:13:21;;;;;;;14.23;8.88;;;;;;;;;;5083992;28;20029;-55
2023/12/13 14:15:51;;;;;;;11.80;8.50;;;;;;;;;;5084099;28;20032;-44
2023/12/13 14:18:19;;;;;;;12.65;6.63;;;;;;;;;;5084589;28;20033;-45
2023/12/13 14:20:48;;;;;;;11.18;6.05;;;;;;;;;;5084687;28;20059;-42
2023/12/13 14:23:15;;;;;;;10.00;5.22;;;;;;;;;;5084627;28;20021;-45
2023/12/13 14:25:42;;;;;;;7.07;4.47;;;;;;;;;;5084707;28;20036;-43
2023/12/13 14:28:09;;;;;;;7.05;4.28;;;;;;;;;;5084162;28;20196;-41
2023/12/13 14:30:35;;;;;;;7.13;4.30;;;;;;;;;;5084470;28;20091;-47
2023/12/13 14:33:02;;;;;;;5.82;3.70;;;;;;;;;;5084214;28;20258;-47
2023/12/13 14:35:30;;;;;;;9.77;3.85;;;;;;;;;;5084299;28;20184;-48
2023/12/13 14:37:56;;;;;;;7.80;3.65;;;;;;;;;;5084511;28;20031;-48